createdAt,value
2018-08-22T00:00:23.443Z,19.20
2018-08-22T00:02:51.887Z,19.30
2018-08-22T00:05:20.329Z,19.40
2018-08-22T00:07:48.777Z,19.40
2018-08-22T00:10:17.229Z,19.50
2018-08-22T00:12:45.676Z,19.50
2018-08-22T00:15:14.190Z,19.60
2018-08-22T00:17:42.621Z,19.70
2018-08-22T00:20:11.081Z,19.60
2018-08-22T00:22:39.517Z,19.70
2018-08-22T00:25:07.969Z,19.60
2018-08-22T00:27:36.385Z,19.60
2018-08-22T00:30:05.623Z,19.70
2018-08-22T00:32:34.062Z,19.70
2018-08-22T00:35:02.725Z,19.80
2018-08-22T00:37:31.155Z,19.70
2018-08-22T00:39:59.602Z,19.70
2018-08-22T00:42:28.024Z,19.70
2018-08-22T00:44:56.460Z,19.70
2018-08-22T00:47:24.876Z,19.60
2018-08-22T00:49:53.313Z,19.60
2018-08-22T00:52:21.725Z,19.50
2018-08-22T00:54:50.177Z,19.50
2018-08-22T00:57:18.624Z,19.60
2018-08-22T00:59:47.529Z,19.60
2018-08-22T01:02:15.949Z,19.60
2018-08-22T01:04:44.417Z,19.50
2018-08-22T01:07:13.649Z,19.40
2018-08-22T01:09:42.752Z,19.40
2018-08-22T01:12:11.213Z,19.40
2018-08-22T01:14:39.657Z,19.30
2018-08-22T01:17:08.113Z,19.30
2018-08-22T01:19:36.559Z,19.30
2018-08-22T01:22:05.113Z,19.30
2018-08-22T01:24:33.575Z,19.30
2018-08-22T01:27:02.049Z,19.30
2018-08-22T01:29:30.626Z,19.30
2018-08-22T01:31:59.080Z,19.30
2018-08-22T01:34:27.516Z,19.20
2018-08-22T01:36:57.189Z,19.20
2018-08-22T01:39:25.633Z,19.20
2018-08-22T01:41:54.084Z,19.10
2018-08-22T01:44:22.584Z,19.10
2018-08-22T01:46:51.023Z,19.00
2018-08-22T01:49:19.484Z,19.00
2018-08-22T01:51:47.916Z,19.00
2018-08-22T01:54:16.365Z,18.90
2018-08-22T01:56:44.832Z,18.90
2018-08-22T01:59:13.288Z,18.80
2018-08-22T02:01:41.750Z,18.80
2018-08-22T02:04:10.209Z,18.70
2018-08-22T02:06:38.712Z,18.60
2018-08-22T02:09:09.741Z,18.60
2018-08-22T02:11:38.187Z,18.50
2018-08-22T02:14:06.940Z,18.40
2018-08-22T02:16:35.618Z,18.40
2018-08-22T02:19:04.034Z,18.30
2018-08-22T02:21:32.479Z,18.30
2018-08-22T02:24:00.927Z,18.30
2018-08-22T02:26:29.368Z,18.30
2018-08-22T02:28:57.797Z,18.20
2018-08-22T02:31:26.377Z,18.20
2018-08-22T02:33:54.800Z,18.20
2018-08-22T02:36:23.247Z,18.10
2018-08-22T02:38:51.681Z,18.00
2018-08-22T02:41:20.125Z,18.00
2018-08-22T02:43:48.569Z,18.00
2018-08-22T02:46:17.026Z,17.90
2018-08-22T02:48:57.076Z,17.80
2018-08-22T02:51:26.821Z,17.80
2018-08-22T02:53:55.260Z,17.70
2018-08-22T02:56:23.736Z,17.70
2018-08-22T02:58:52.180Z,17.70
2018-08-22T03:01:20.625Z,17.60
2018-08-22T03:03:49.091Z,17.60
2018-08-22T03:06:17.641Z,17.50
2018-08-22T03:08:46.105Z,17.50
2018-08-22T03:11:14.632Z,17.50
2018-08-22T03:13:43.072Z,17.50
2018-08-22T03:16:11.505Z,17.60
2018-08-22T03:18:39.953Z,17.50
2018-08-22T03:21:08.420Z,17.60
2018-08-22T03:23:36.888Z,17.60
2018-08-22T03:26:05.358Z,17.60
2018-08-22T03:28:33.850Z,17.50
2018-08-22T03:31:02.303Z,17.50
2018-08-22T03:33:30.728Z,17.50
2018-08-22T03:35:59.173Z,17.50
2018-08-22T03:38:27.604Z,17.50
2018-08-22T03:40:56.105Z,17.40
2018-08-22T03:43:24.537Z,17.50
2018-08-22T03:45:52.973Z,17.50
2018-08-22T03:48:21.416Z,17.40
2018-08-22T03:50:49.920Z,17.30
2018-08-22T03:53:18.401Z,17.30
2018-08-22T03:55:46.927Z,17.30
2018-08-22T03:58:16.161Z,17.20
2018-08-22T04:00:44.674Z,17.10
2018-08-22T04:03:13.136Z,17.10
2018-08-22T04:05:41.603Z,17.10
2018-08-22T04:08:10.118Z,17.10
2018-08-22T04:10:38.556Z,17.00
2018-08-22T04:13:07.049Z,17.00
2018-08-22T04:15:35.594Z,16.90
2018-08-22T04:18:04.132Z,16.90
2018-08-22T04:20:32.648Z,16.90
2018-08-22T04:23:02.266Z,16.90
2018-08-22T04:25:30.733Z,16.80
2018-08-22T04:27:59.220Z,16.80
2018-08-22T04:30:27.661Z,16.90
2018-08-22T04:32:56.105Z,16.80
2018-08-22T04:35:24.521Z,16.90
2018-08-22T04:37:52.977Z,16.80
2018-08-22T04:40:21.416Z,16.80
2018-08-22T04:42:49.848Z,16.80
2018-08-22T04:45:18.297Z,16.80
2018-08-22T04:47:46.724Z,16.80
2018-08-22T04:50:15.188Z,16.80
2018-08-22T04:52:43.625Z,16.90
2018-08-22T04:55:12.193Z,16.90
2018-08-22T04:57:40.608Z,16.90
2018-08-22T05:00:09.908Z,16.90
2018-08-22T05:02:38.537Z,17.00
2018-08-22T05:05:07.372Z,17.00
2018-08-22T05:07:35.804Z,17.00
2018-08-22T05:10:04.327Z,17.10
2018-08-22T05:12:33.268Z,17.10
2018-08-22T05:15:01.701Z,17.20
2018-08-22T05:17:30.136Z,17.20
2018-08-22T05:19:58.652Z,17.30
2018-08-22T05:22:27.096Z,17.30
2018-08-22T05:24:55.527Z,17.40
2018-08-22T05:27:23.944Z,17.50
2018-08-22T05:29:52.649Z,17.50
2018-08-22T05:32:21.104Z,17.50
2018-08-22T05:34:49.578Z,17.50
2018-08-22T05:37:18.010Z,17.60
2018-08-22T05:39:46.437Z,17.60
2018-08-22T05:42:14.860Z,17.60
2018-08-22T05:44:43.305Z,17.80
2018-08-22T05:47:11.733Z,17.90
2018-08-22T05:49:40.212Z,18.00
2018-08-22T05:52:08.625Z,18.10
2018-08-22T05:54:37.045Z,18.10
2018-08-22T05:57:06.203Z,18.20
2018-08-22T05:59:34.631Z,18.30
2018-08-22T06:02:03.078Z,18.40
2018-08-22T06:04:31.532Z,18.50
2018-08-22T06:06:59.996Z,18.70
2018-08-22T06:09:28.410Z,18.70
2018-08-22T06:11:56.828Z,18.90
2018-08-22T06:14:25.272Z,18.90
2018-08-22T06:16:53.692Z,19.20
2018-08-22T06:19:22.168Z,19.30
2018-08-22T06:21:50.596Z,20.00
2018-08-22T06:24:19.040Z,21.00
2018-08-22T06:26:47.508Z,21.30
2018-08-22T06:29:15.973Z,21.40
2018-08-22T06:31:44.459Z,20.80
2018-08-22T06:34:12.952Z,20.70
2018-08-22T06:36:41.432Z,20.60
2018-08-22T06:39:11.222Z,20.60
2018-08-22T06:41:40.025Z,20.50
2018-08-22T06:44:08.635Z,20.80
2018-08-22T06:46:37.100Z,20.90
2018-08-22T06:49:05.555Z,20.80
2018-08-22T06:51:34.113Z,20.90
2018-08-22T06:54:03.533Z,21.40
2018-08-22T06:56:32.119Z,21.40
2018-08-22T06:59:02.763Z,21.80
2018-08-22T07:01:33.828Z,22.00
2018-08-22T07:04:02.913Z,21.90
2018-08-22T07:06:31.390Z,21.70
2018-08-22T07:09:02.266Z,21.90
2018-08-22T07:11:30.745Z,22.10
2018-08-22T07:13:59.257Z,22.60
2018-08-22T07:16:27.698Z,22.90
2018-08-22T07:18:56.137Z,22.70
2018-08-22T07:21:26.585Z,22.60
2018-08-22T07:23:55.129Z,22.50
2018-08-22T07:26:24.094Z,23.10
2018-08-22T07:28:52.564Z,23.10
2018-08-22T07:31:22.885Z,22.80
2018-08-22T07:33:51.382Z,22.60
2018-08-22T07:36:19.894Z,22.80
2018-08-22T07:38:49.513Z,22.60
2018-08-22T07:41:18.615Z,22.80
2018-08-22T07:43:47.180Z,23.20
2018-08-22T07:46:18.469Z,23.10
2018-08-22T07:48:46.966Z,23.30
2018-08-22T07:51:15.449Z,23.40
2018-08-22T07:53:45.933Z,23.50
2018-08-22T07:56:15.457Z,23.90
2018-08-22T07:58:43.880Z,24.60
2018-08-22T08:01:12.316Z,24.20
2018-08-22T08:03:40.833Z,23.80
2018-08-22T08:06:09.309Z,24.10
2018-08-22T08:08:37.768Z,24.30
2018-08-22T08:11:06.369Z,24.50
2018-08-22T08:13:34.840Z,24.50
2018-08-22T08:16:05.913Z,24.80
2018-08-22T08:18:34.371Z,24.60
2018-08-22T08:21:02.827Z,25.20
2018-08-22T08:23:31.339Z,25.30
2018-08-22T08:26:02.145Z,25.10
2018-08-22T08:28:33.331Z,25.50
2018-08-22T08:31:01.808Z,25.20
2018-08-22T08:33:30.273Z,25.10
2018-08-22T08:35:58.742Z,25.10
2018-08-22T08:38:29.697Z,25.20
2018-08-22T08:40:58.345Z,25.60
2018-08-22T08:43:26.873Z,25.60
2018-08-22T08:45:55.337Z,26.20
2018-08-22T08:48:25.287Z,26.10
2018-08-22T08:50:53.827Z,26.60
2018-08-22T08:53:23.713Z,26.40
2018-08-22T08:55:52.237Z,26.50
2018-08-22T08:58:22.181Z,26.10
2018-08-22T09:00:52.712Z,26.10
2018-08-22T09:03:21.737Z,25.60
2018-08-22T09:05:51.953Z,26.20
2018-08-22T09:08:20.435Z,26.30
2018-08-22T09:10:48.953Z,26.60
2018-08-22T09:13:17.344Z,26.50
2018-08-22T09:15:47.282Z,27.00
2018-08-22T09:18:15.765Z,27.60
2018-08-22T09:20:44.344Z,26.20
2018-08-22T09:23:12.783Z,26.70
2018-08-22T09:25:41.233Z,26.60
2018-08-22T09:28:09.725Z,27.70
2018-08-22T09:30:38.142Z,27.40
2018-08-22T09:33:06.559Z,27.60
2018-08-22T09:35:35.018Z,27.60
2018-08-22T09:38:03.485Z,27.70
2018-08-22T09:40:31.908Z,27.30
2018-08-22T09:43:00.349Z,27.60
2018-08-22T09:45:28.836Z,27.70
2018-08-22T09:47:57.288Z,27.30
2018-08-22T09:50:25.723Z,27.70
2018-08-22T09:52:54.173Z,27.50
2018-08-22T09:55:22.608Z,27.00
2018-08-22T09:57:51.025Z,27.30
2018-08-22T10:00:24.698Z,27.90
2018-08-22T10:02:53.148Z,27.80
2018-08-22T10:05:21.681Z,27.90
2018-08-22T10:07:50.101Z,27.80
2018-08-22T10:10:18.550Z,28.70
2018-08-22T10:12:46.995Z,28.80
2018-08-22T10:15:15.409Z,29.00
2018-08-22T10:17:43.850Z,29.10
2018-08-22T10:20:12.261Z,28.60
2018-08-22T10:22:40.705Z,27.90
2018-08-22T10:25:09.839Z,28.90
2018-08-22T10:27:38.258Z,28.50
2018-08-22T10:30:07.256Z,28.50
2018-08-22T10:32:35.720Z,29.60
2018-08-22T10:35:04.228Z,28.30
2018-08-22T10:37:32.701Z,28.30
2018-08-22T10:40:01.132Z,28.80
2018-08-22T10:42:29.573Z,29.00
2018-08-22T10:44:58.045Z,29.10
2018-08-22T10:47:26.493Z,28.60
2018-08-22T10:49:54.927Z,27.80
2018-08-22T10:52:23.348Z,28.10
2018-08-22T10:54:51.805Z,29.50
2018-08-22T10:57:20.302Z,29.50
2018-08-22T10:59:48.781Z,29.20
2018-08-22T11:02:17.197Z,28.70
2018-08-22T11:04:45.718Z,29.80
2018-08-22T11:07:14.144Z,27.90
2018-08-22T11:09:42.573Z,29.10
2018-08-22T11:12:10.993Z,29.90
2018-08-22T11:14:39.431Z,30.10
2018-08-22T11:17:08.060Z,29.80
2018-08-22T11:19:36.509Z,29.80
2018-08-22T11:22:16.067Z,29.80
2018-08-22T11:24:55.622Z,29.70
2018-08-22T11:27:35.424Z,29.80
2018-08-22T11:30:15.041Z,30.50
2018-08-22T11:32:54.828Z,30.30
2018-08-22T11:35:22.116Z,30.50
2018-08-22T11:37:50.597Z,29.90
2018-08-22T11:40:19.098Z,28.80
2018-08-22T11:42:50.175Z,29.10
2018-08-22T11:45:18.629Z,30.20
2018-08-22T11:47:47.045Z,30.30
2018-08-22T11:50:15.489Z,30.70
2018-08-22T11:52:43.909Z,30.40
2018-08-22T11:55:12.352Z,30.10
2018-08-22T11:57:40.828Z,29.90
2018-08-22T12:00:09.311Z,30.00
2018-08-22T12:02:37.747Z,30.00
2018-08-22T12:05:06.402Z,30.30
2018-08-22T12:07:34.902Z,29.60
2018-08-22T12:10:03.394Z,28.30
2018-08-22T12:12:31.894Z,28.90
2018-08-22T12:15:00.439Z,30.00
2018-08-22T12:17:28.881Z,30.20
2018-08-22T12:19:57.353Z,30.10
2018-08-22T12:22:25.775Z,29.60
2018-08-22T12:24:54.229Z,30.30
2018-08-22T12:27:22.688Z,30.50
2018-08-22T12:29:51.143Z,30.70
2018-08-22T12:32:19.597Z,30.20
2018-08-22T12:34:48.048Z,30.40
2018-08-22T12:37:16.745Z,29.00
2018-08-22T12:39:45.185Z,29.40
2018-08-22T12:42:13.637Z,30.20
2018-08-22T12:44:43.210Z,31.00
2018-08-22T12:47:11.661Z,30.00
2018-08-22T12:49:40.187Z,31.00
2018-08-22T12:52:08.993Z,31.00
2018-08-22T12:54:37.444Z,31.00
2018-08-22T12:57:06.004Z,30.90
2018-08-22T12:59:34.414Z,31.10
2018-08-22T13:02:02.880Z,31.00
2018-08-22T13:04:31.365Z,30.40
2018-08-22T13:06:59.818Z,30.50
2018-08-22T13:09:28.328Z,31.00
2018-08-22T13:11:56.784Z,29.40
2018-08-22T13:14:25.265Z,29.60
2018-08-22T13:16:53.966Z,30.60
2018-08-22T13:19:24.717Z,31.00
2018-08-22T13:21:55.667Z,31.00
2018-08-22T13:24:25.720Z,30.00
2018-08-22T13:26:54.160Z,30.30
2018-08-22T13:29:22.634Z,30.10
2018-08-22T13:31:51.121Z,30.00
2018-08-22T13:34:19.572Z,30.40
2018-08-22T13:36:48.012Z,30.80
2018-08-22T13:39:16.473Z,30.80
2018-08-22T13:41:44.920Z,31.10
2018-08-22T13:44:13.368Z,31.20
2018-08-22T13:46:41.811Z,31.50
2018-08-22T13:49:10.354Z,30.80
2018-08-22T13:51:38.821Z,30.60
2018-08-22T13:54:07.944Z,30.90
2018-08-22T13:56:36.424Z,30.50
2018-08-22T13:59:04.841Z,30.70
2018-08-22T14:01:33.380Z,30.70
2018-08-22T14:04:01.781Z,31.00
2018-08-22T14:06:30.233Z,31.60
2018-08-22T14:08:59.009Z,31.30
2018-08-22T14:11:27.477Z,31.10
2018-08-22T14:13:56.088Z,31.40
2018-08-22T14:16:24.569Z,30.60
2018-08-22T14:18:53.253Z,31.30
2018-08-22T14:21:21.720Z,30.80
2018-08-22T14:23:50.149Z,30.90
2018-08-22T14:26:18.612Z,31.30
2018-08-22T14:28:47.073Z,31.10
2018-08-22T14:31:15.564Z,30.30
2018-08-22T14:33:44.032Z,30.80
2018-08-22T14:36:12.503Z,31.00
2018-08-22T14:38:40.992Z,30.70
2018-08-22T14:41:09.449Z,30.00
2018-08-22T14:43:38.432Z,29.40
2018-08-22T14:46:06.860Z,29.90
2018-08-22T14:48:35.808Z,29.80
2018-08-22T14:51:04.365Z,29.30
2018-08-22T14:53:33.020Z,28.90
2018-08-22T14:56:01.480Z,29.30
2018-08-22T14:58:29.941Z,29.30
2018-08-22T15:00:58.424Z,29.50
2018-08-22T15:03:27.022Z,29.60
2018-08-22T15:05:55.361Z,29.40
2018-08-22T15:08:23.817Z,29.50
2018-08-22T15:10:52.265Z,29.10
2018-08-22T15:13:20.709Z,29.10
2018-08-22T15:15:49.484Z,29.80
2018-08-22T15:18:17.967Z,29.90
2018-08-22T15:20:46.412Z,29.00
2018-08-22T15:23:14.852Z,29.50
2018-08-22T15:25:43.345Z,28.90
2018-08-22T15:28:11.802Z,28.80
2018-08-22T15:30:40.245Z,28.60
2018-08-22T15:33:08.697Z,28.30
2018-08-22T15:35:37.149Z,28.60
2018-08-22T15:38:05.660Z,28.90
2018-08-22T15:40:34.106Z,29.00
2018-08-22T15:43:03.100Z,28.90
2018-08-22T15:45:31.680Z,28.60
2018-08-22T15:48:00.169Z,28.70
2018-08-22T15:50:28.894Z,28.60
2018-08-22T15:52:57.496Z,28.30
2018-08-22T15:55:25.872Z,28.30
2018-08-22T15:58:05.761Z,27.90
2018-08-22T16:00:38.871Z,28.30
2018-08-22T16:03:08.518Z,28.30
2018-08-22T16:05:37.798Z,28.30
2018-08-22T16:08:06.889Z,28.10
2018-08-22T16:10:35.344Z,28.30
2018-08-22T16:13:03.858Z,28.30
2018-08-22T16:15:36.420Z,28.20
2018-08-22T16:18:07.501Z,28.00
2018-08-22T16:20:49.429Z,28.10
2018-08-22T16:23:17.948Z,28.10
2018-08-22T16:25:47.877Z,27.70
2018-08-22T16:28:17.062Z,27.80
2018-08-22T16:30:56.769Z,27.80
2018-08-22T16:33:14.041Z,27.50
2018-08-22T16:35:42.509Z,27.30
2018-08-22T16:38:13.224Z,27.20
2018-08-22T16:40:47.636Z,27.20
2018-08-22T16:43:30.302Z,27.10
2018-08-22T16:45:58.761Z,26.90
2018-08-22T16:48:27.233Z,26.90
2018-08-22T16:50:55.687Z,27.30
2018-08-22T16:53:24.136Z,27.40
2018-08-22T16:55:52.580Z,27.30
2018-08-22T16:58:21.002Z,27.40
2018-08-22T17:00:50.398Z,27.50
2018-08-22T17:03:18.952Z,27.20
2018-08-22T17:05:47.390Z,27.10
2018-08-22T17:08:16.401Z,27.10
2018-08-22T17:10:53.837Z,27.20
2018-08-22T17:13:28.544Z,27.00
2018-08-22T17:15:58.406Z,27.00
2018-08-22T17:18:27.196Z,26.80
2018-08-22T17:20:55.688Z,26.70
2018-08-22T17:23:24.177Z,26.70
2018-08-22T17:25:53.156Z,26.80
2018-08-22T17:28:26.971Z,26.60
2018-08-22T17:30:55.437Z,26.50
2018-08-22T17:33:28.092Z,26.50
2018-08-22T17:35:58.236Z,26.70
2018-08-22T17:38:27.093Z,26.50
2018-08-22T17:40:55.539Z,26.30
2018-08-22T17:43:23.993Z,26.30
2018-08-22T17:45:52.444Z,26.20
2018-08-22T17:48:22.998Z,26.20
2018-08-22T17:50:51.880Z,26.20
2018-08-22T17:53:20.386Z,26.20
2018-08-22T17:55:50.379Z,26.10
2018-08-22T17:58:19.303Z,26.10
2018-08-22T18:00:47.818Z,26.10
2018-08-22T18:03:16.314Z,26.10
2018-08-22T18:05:44.769Z,26.00
2018-08-22T18:08:13.278Z,25.80
2018-08-22T18:10:41.738Z,25.80
2018-08-22T18:13:16.408Z,25.80
2018-08-22T18:15:45.851Z,25.70
2018-08-22T18:18:15.006Z,25.60
2018-08-22T18:20:47.346Z,25.50
2018-08-22T18:23:17.061Z,25.60
2018-08-22T18:25:50.893Z,25.50
2018-08-22T18:28:19.378Z,25.40
2018-08-22T18:30:47.869Z,25.40
2018-08-22T18:33:16.345Z,25.40
2018-08-22T18:35:45.904Z,25.30
2018-08-22T18:38:14.478Z,25.20
2018-08-22T18:40:45.782Z,25.10
2018-08-22T18:43:14.771Z,25.00
2018-08-22T18:46:14.401Z,24.90
2018-08-22T18:48:42.861Z,24.80
2018-08-22T18:51:11.444Z,24.70
2018-08-22T18:53:40.556Z,24.70
2018-08-22T18:56:16.140Z,24.60
2018-08-22T18:58:44.595Z,24.50
2018-08-22T19:01:13.260Z,24.40
2018-08-22T19:03:41.741Z,24.20
2018-08-22T19:06:10.257Z,24.20
2018-08-22T19:08:39.469Z,24.10
2018-08-22T19:11:08.896Z,24.10
2018-08-22T19:13:37.320Z,24.00
2018-08-22T19:16:07.125Z,24.00
2018-08-22T19:18:35.632Z,23.80
2018-08-22T19:21:08.338Z,23.90
2018-08-22T19:23:36.804Z,23.80
2018-08-22T19:26:06.484Z,23.70
2018-08-22T19:28:53.500Z,23.70
2018-08-22T19:31:21.947Z,23.60
2018-08-22T19:33:50.396Z,23.60
2018-08-22T19:36:18.834Z,23.60
2018-08-22T19:38:47.281Z,23.50
2018-08-22T19:41:32.805Z,23.40
2018-08-22T19:44:01.240Z,23.40
2018-08-22T19:46:29.681Z,23.30
2018-08-22T19:48:58.651Z,23.30
2018-08-22T19:51:26.997Z,23.30
2018-08-22T19:53:59.708Z,23.30
2018-08-22T19:56:28.680Z,23.20
2018-08-22T19:58:57.489Z,23.10
2018-08-22T20:01:26.026Z,23.10
2018-08-22T20:03:56.492Z,23.10
2018-08-22T20:06:25.589Z,23.00
2018-08-22T20:08:55.601Z,22.90
2018-08-22T20:11:25.397Z,22.90
2018-08-22T20:13:59.938Z,22.80
2018-08-22T20:16:28.377Z,22.70
2018-08-22T20:19:01.123Z,22.70
2018-08-22T20:21:32.824Z,22.70
2018-08-22T20:24:02.125Z,22.60
2018-08-22T20:26:30.933Z,22.60
2018-08-22T20:29:00.608Z,22.50
2018-08-22T20:31:29.061Z,22.40
2018-08-22T20:34:06.941Z,22.40
2018-08-22T20:36:35.657Z,22.40
2018-08-22T20:39:06.763Z,22.30
2018-08-22T20:41:35.861Z,22.30
2018-08-22T20:44:07.909Z,22.20
2018-08-22T20:46:36.372Z,22.20
2018-08-22T20:49:05.126Z,22.20
2018-08-22T20:51:33.973Z,22.10
2018-08-22T20:54:07.046Z,22.10
2018-08-22T20:56:37.184Z,22.00
2018-08-22T20:59:06.061Z,21.90
2018-08-22T21:01:34.531Z,21.90
2018-08-22T21:04:03.689Z,21.80
2018-08-22T21:06:32.180Z,21.70
2018-08-22T21:09:00.621Z,21.70
2018-08-22T21:11:29.085Z,21.60
2018-08-22T21:14:00.374Z,21.70
2018-08-22T21:16:28.833Z,21.70
2018-08-22T21:18:57.321Z,21.60
2018-08-22T21:21:25.777Z,21.50
2018-08-22T21:23:54.245Z,21.50
2018-08-22T21:26:35.942Z,21.40
2018-08-22T21:29:04.592Z,21.40
2018-08-22T21:31:33.694Z,21.30
2018-08-22T21:34:13.049Z,21.30
2018-08-22T21:36:43.466Z,21.20
2018-08-22T21:39:17.193Z,21.20
2018-08-22T21:41:46.765Z,21.10
2018-08-22T21:44:17.493Z,21.10
2018-08-22T21:46:46.329Z,21.00
2018-08-22T21:49:16.385Z,21.00
2018-08-22T21:51:44.890Z,21.00
2018-08-22T21:54:13.864Z,21.00
2018-08-22T21:56:42.342Z,20.90
2018-08-22T21:59:11.334Z,20.80
2018-08-22T22:01:46.210Z,20.80
2018-08-22T22:04:19.288Z,20.70
2018-08-22T22:06:47.824Z,20.70
2018-08-22T22:09:16.624Z,20.70
2018-08-22T22:11:45.695Z,20.60
2018-08-22T22:14:25.793Z,20.60
2018-08-22T22:16:57.233Z,20.60
2018-08-22T22:19:28.461Z,20.50
2018-08-22T22:21:56.937Z,20.40
2018-08-22T22:24:25.396Z,20.40
2018-08-22T22:26:53.820Z,20.30
2018-08-22T22:29:25.371Z,20.30
2018-08-22T22:31:53.813Z,20.30
2018-08-22T22:34:22.342Z,20.30
2018-08-22T22:36:51.040Z,20.10
2018-08-22T22:39:33.857Z,20.10
2018-08-22T22:42:09.713Z,20.00
2018-08-22T22:44:38.683Z,20.00
2018-08-22T22:47:12.972Z,19.90
2018-08-22T22:49:41.466Z,19.90
2018-08-22T22:52:23.034Z,19.90
2018-08-22T22:54:56.926Z,19.90
2018-08-22T22:57:27.223Z,19.90
2018-08-22T22:59:55.664Z,19.80
2018-08-22T23:02:25.576Z,19.70
2018-08-22T23:04:54.989Z,19.70
2018-08-22T23:07:39.504Z,19.60
2018-08-22T23:10:09.944Z,19.60
2018-08-22T23:12:43.807Z,19.60
2018-08-22T23:15:15.202Z,19.70
2018-08-22T23:17:44.208Z,19.60
2018-08-22T23:20:28.113Z,19.60
2018-08-22T23:22:57.466Z,19.60
2018-08-22T23:25:26.353Z,19.50
2018-08-22T23:27:55.224Z,19.30
2018-08-22T23:30:29.113Z,19.20
2018-08-22T23:32:57.693Z,19.20
2018-08-22T23:35:28.457Z,19.10
2018-08-22T23:37:59.518Z,19.00
2018-08-22T23:40:32.410Z,19.00
2018-08-22T23:43:01.842Z,19.00
2018-08-22T23:45:31.082Z,18.90
2018-08-22T23:47:59.539Z,18.80
2018-08-22T23:51:09.412Z,18.80
2018-08-22T23:53:45.997Z,18.70
2018-08-22T23:56:24.716Z,18.70
2018-08-22T23:58:54.056Z,18.60
